Grants Pass, Oregon
Current Conditions -  °F | °C
As of 10:56 PM on Wednesday 22 Oct 2014 (Local Time) from KSXT Reporting Station
Light Rain Light Rain  
Wind Chill:   Ceiling: 1900
Heat Index:   Visibility: 10mi
Dew Point:   Wind: 24mph
Humidity: 100%   Direction: 190°S
Pressure: 29.84"   Gusts: 41mph
Location:  42.44°N, 123.32°W
Report Text: KSXT 230556Z AUTO 19021G36KT 10SM -RA BKN019 OVC025 09/09 A2984 RMK AO2 PK WND 19036/0556 RAB08E37B44 SLP096 P0002 60029 T00890089 10089 20089 56006
Loading
Personal Weather Stations






























Interactive Weather Map
Tropical Storm Tracking
New forecast layout! Learn more

10-Day Weather Forecast

Advertisements
Track Severe Weather on mobile